sensor_id;sensor_type;location;lat;lon;timestamp;P1;durP1;ratioP1;P2;durP2;ratioP2
45316;SDS011;31053;55.870;37.592;2023-04-25T00:02:24;19.48;;;4.93;;
45316;SDS011;31053;55.870;37.592;2023-04-25T00:05:29;18.40;;;4.95;;
45316;SDS011;31053;55.870;37.592;2023-04-25T00:08:34;13.52;;;3.60;;
45316;SDS011;31053;55.870;37.592;2023-04-25T00:11:39;15.57;;;5.15;;
45316;SDS011;31053;55.870;37.592;2023-04-25T00:14:44;9.80;;;4.90;;
45316;SDS011;31053;55.870;37.592;2023-04-25T00:17:49;10.23;;;4.10;;
45316;SDS011;31053;55.870;37.592;2023-04-25T00:20:57;15.52;;;4.78;;
45316;SDS011;31053;55.870;37.592;2023-04-25T00:24:01;19.65;;;4.80;;
45316;SDS011;31053;55.870;37.592;2023-04-25T00:27:06;25.88;;;4.65;;
45316;SDS011;31053;55.870;37.592;2023-04-25T00:30:11;11.05;;;4.75;;
45316;SDS011;31053;55.870;37.592;2023-04-25T00:33:16;18.98;;;7.75;;
45316;SDS011;31053;55.870;37.592;2023-04-25T00:36:21;15.63;;;5.07;;
45316;SDS011;31053;55.870;37.592;2023-04-25T00:39:26;9.65;;;4.20;;
45316;SDS011;31053;55.870;37.592;2023-04-25T00:42:31;11.90;;;4.80;;
45316;SDS011;31053;55.870;37.592;2023-04-25T00:45:40;21.27;;;6.90;;
45316;SDS011;31053;55.870;37.592;2023-04-25T00:49:09;19.92;;;5.85;;
45316;SDS011;31053;55.870;37.592;2023-04-25T00:52:19;13.15;;;4.63;;
45316;SDS011;31053;55.870;37.592;2023-04-25T00:55:25;14.27;;;5.30;;
45316;SDS011;31053;55.870;37.592;2023-04-25T00:58:30;28.80;;;4.95;;
45316;SDS011;31053;55.870;37.592;2023-04-25T01:01:35;10.88;;;4.05;;
45316;SDS011;31053;55.870;37.592;2023-04-25T01:04:39;15.45;;;6.15;;
45316;SDS011;31053;55.870;37.592;2023-04-25T01:07:44;15.30;;;5.93;;
45316;SDS011;31053;55.870;37.592;2023-04-25T01:10:49;14.75;;;4.57;;
45316;SDS011;31053;55.870;37.592;2023-04-25T01:13:54;22.15;;;6.40;;
45316;SDS011;31053;55.870;37.592;2023-04-25T01:16:58;26.65;;;5.75;;
45316;SDS011;31053;55.870;37.592;2023-04-25T01:20:03;11.60;;;4.47;;
45316;SDS011;31053;55.870;37.592;2023-04-25T01:26:14;12.88;;;3.80;;
45316;SDS011;31053;55.870;37.592;2023-04-25T01:29:19;7.18;;;3.83;;
45316;SDS011;31053;55.870;37.592;2023-04-25T01:32:24;14.60;;;3.97;;
45316;SDS011;31053;55.870;37.592;2023-04-25T01:35:30;8.70;;;3.90;;
45316;SDS011;31053;55.870;37.592;2023-04-25T01:38:35;13.38;;;4.22;;
45316;SDS011;31053;55.870;37.592;2023-04-25T01:41:40;22.08;;;4.93;;
45316;SDS011;31053;55.870;37.592;2023-04-25T01:44:45;12.77;;;4.70;;
45316;SDS011;31053;55.870;37.592;2023-04-25T01:47:49;10.95;;;4.63;;
45316;SDS011;31053;55.870;37.592;2023-04-25T01:50:54;11.70;;;5.43;;
45316;SDS011;31053;55.870;37.592;2023-04-25T01:54:00;18.15;;;5.38;;
45316;SDS011;31053;55.870;37.592;2023-04-25T01:57:04;10.35;;;4.57;;
45316;SDS011;31053;55.870;37.592;2023-04-25T02:00:11;8.77;;;4.93;;
45316;SDS011;31053;55.870;37.592;2023-04-25T02:03:16;16.90;;;6.65;;
45316;SDS011;31053;55.870;37.592;2023-04-25T02:06:22;17.85;;;5.32;;
45316;SDS011;31053;55.870;37.592;2023-04-25T02:09:29;14.75;;;4.97;;
45316;SDS011;31053;55.870;37.592;2023-04-25T02:12:35;11.73;;;4.95;;
45316;SDS011;31053;55.870;37.592;2023-04-25T02:15:56;11.95;;;5.10;;
45316;SDS011;31053;55.870;37.592;2023-04-25T02:19:01;17.23;;;4.55;;
45316;SDS011;31053;55.870;37.592;2023-04-25T02:22:09;13.95;;;4.95;;
45316;SDS011;31053;55.870;37.592;2023-04-25T02:25:14;7.53;;;3.80;;
45316;SDS011;31053;55.870;37.592;2023-04-25T02:28:20;16.27;;;4.10;;
45316;SDS011;31053;55.870;37.592;2023-04-25T02:31:25;10.48;;;4.00;;
45316;SDS011;31053;55.870;37.592;2023-04-25T02:34:29;11.95;;;3.80;;
45316;SDS011;31053;55.870;37.592;2023-04-25T02:37:35;10.05;;;3.90;;
45316;SDS011;31053;55.870;37.592;2023-04-25T02:41:02;13.15;;;3.67;;
45316;SDS011;31053;55.870;37.592;2023-04-25T02:44:06;10.45;;;4.45;;
45316;SDS011;31053;55.870;37.592;2023-04-25T02:47:11;9.02;;;3.65;;
45316;SDS011;31053;55.870;37.592;2023-04-25T02:50:15;14.63;;;3.65;;
45316;SDS011;31053;55.870;37.592;2023-04-25T02:53:21;11.10;;;4.15;;
45316;SDS011;31053;55.870;37.592;2023-04-25T02:56:28;10.95;;;3.05;;
45316;SDS011;31053;55.870;37.592;2023-04-25T02:59:54;10.68;;;4.45;;
45316;SDS011;31053;55.870;37.592;2023-04-25T03:02:59;20.10;;;4.75;;
45316;SDS011;31053;55.870;37.592;2023-04-25T03:06:04;11.50;;;3.85;;
45316;SDS011;31053;55.870;37.592;2023-04-25T03:09:11;14.60;;;4.10;;
45316;SDS011;31053;55.870;37.592;2023-04-25T03:12:16;16.00;;;4.05;;
45316;SDS011;31053;55.870;37.592;2023-04-25T03:15:21;7.15;;;3.50;;
45316;SDS011;31053;55.870;37.592;2023-04-25T03:18:26;13.60;;;4.40;;
45316;SDS011;31053;55.870;37.592;2023-04-25T03:21:33;14.77;;;4.32;;
45316;SDS011;31053;55.870;37.592;2023-04-25T03:27:44;15.85;;;6.10;;
45316;SDS011;31053;55.870;37.592;2023-04-25T03:30:48;10.50;;;4.22;;
45316;SDS011;31053;55.870;37.592;2023-04-25T03:33:53;10.60;;;4.15;;
45316;SDS011;31053;55.870;37.592;2023-04-25T03:37:24;11.55;;;3.05;;
45316;SDS011;31053;55.870;37.592;2023-04-25T03:40:29;19.63;;;4.25;;
45316;SDS011;31053;55.870;37.592;2023-04-25T03:43:56;10.05;;;3.38;;
45316;SDS011;31053;55.870;37.592;2023-04-25T03:47:01;27.05;;;4.53;;
45316;SDS011;31053;55.870;37.592;2023-04-25T03:50:07;19.63;;;4.85;;
45316;SDS011;31053;55.870;37.592;2023-04-25T03:53:15;11.90;;;4.10;;
45316;SDS011;31053;55.870;37.592;2023-04-25T03:56:38;8.35;;;4.32;;
45316;SDS011;31053;55.870;37.592;2023-04-25T03:59:53;15.27;;;4.97;;
45316;SDS011;31053;55.870;37.592;2023-04-25T04:02:57;23.90;;;5.40;;
45316;SDS011;31053;55.870;37.592;2023-04-25T04:06:06;19.05;;;4.90;;
45316;SDS011;31053;55.870;37.592;2023-04-25T04:09:15;16.67;;;6.00;;
45316;SDS011;31053;55.870;37.592;2023-04-25T04:12:21;24.85;;;5.93;;
45316;SDS011;31053;55.870;37.592;2023-04-25T04:15:26;26.98;;;6.53;;
45316;SDS011;31053;55.870;37.592;2023-04-25T04:18:31;15.50;;;4.43;;
45316;SDS011;31053;55.870;37.592;2023-04-25T04:21:37;21.48;;;5.68;;
45316;SDS011;31053;55.870;37.592;2023-04-25T04:24:43;20.15;;;6.45;;
45316;SDS011;31053;55.870;37.592;2023-04-25T04:27:49;25.52;;;6.30;;
45316;SDS011;31053;55.870;37.592;2023-04-25T04:31:11;14.77;;;5.05;;
45316;SDS011;31053;55.870;37.592;2023-04-25T04:34:30;12.07;;;5.15;;
45316;SDS011;31053;55.870;37.592;2023-04-25T04:37:35;26.42;;;7.40;;
45316;SDS011;31053;55.870;37.592;2023-04-25T04:40:42;18.35;;;6.93;;
45316;SDS011;31053;55.870;37.592;2023-04-25T04:44:33;21.88;;;7.47;;
45316;SDS011;31053;55.870;37.592;2023-04-25T04:48:21;11.23;;;5.75;;
45316;SDS011;31053;55.870;37.592;2023-04-25T04:51:38;20.60;;;6.18;;
45316;SDS011;31053;55.870;37.592;2023-04-25T04:55:33;23.60;;;6.30;;
45316;SDS011;31053;55.870;37.592;2023-04-25T05:03:43;16.77;;;6.68;;
45316;SDS011;31053;55.870;37.592;2023-04-25T05:07:37;14.68;;;6.78;;
45316;SDS011;31053;55.870;37.592;2023-04-25T05:15:50;15.38;;;7.97;;
45316;SDS011;31053;55.870;37.592;2023-04-25T05:19:39;21.33;;;8.02;;
45316;SDS011;31053;55.870;37.592;2023-04-25T05:27:13;17.73;;;6.57;;
45316;SDS011;31053;55.870;37.592;2023-04-25T05:44:07;18.70;;;6.10;;
45316;SDS011;31053;55.870;37.592;2023-04-25T05:47:53;6.25;;;4.28;;
45316;SDS011;31053;55.870;37.592;2023-04-25T05:52:16;19.92;;;6.13;;
45316;SDS011;31053;55.870;37.592;2023-04-25T06:02:07;22.65;;;12.40;;
45316;SDS011;31053;55.870;37.592;2023-04-25T06:05:23;33.45;;;6.68;;
45316;SDS011;31053;55.870;37.592;2023-04-25T06:08:46;20.63;;;5.38;;
45316;SDS011;31053;55.870;37.592;2023-04-25T06:12:02;11.75;;;4.28;;
45316;SDS011;31053;55.870;37.592;2023-04-25T06:15:19;19.98;;;5.25;;
45316;SDS011;31053;55.870;37.592;2023-04-25T06:18:56;9.25;;;3.90;;
45316;SDS011;31053;55.870;37.592;2023-04-25T06:40:49;16.95;;;4.20;;
45316;SDS011;31053;55.870;37.592;2023-04-25T06:43:57;16.08;;;4.97;;
45316;SDS011;31053;55.870;37.592;2023-04-25T06:47:09;10.70;;;3.78;;
45316;SDS011;31053;55.870;37.592;2023-04-25T07:02:59;19.48;;;4.18;;
45316;SDS011;31053;55.870;37.592;2023-04-25T07:06:13;11.02;;;4.10;;
45316;SDS011;31053;55.870;37.592;2023-04-25T07:09:27;9.63;;;3.00;;
45316;SDS011;31053;55.870;37.592;2023-04-25T07:24:25;14.45;;;3.13;;
45316;SDS011;31053;55.870;37.592;2023-04-25T07:28:17;50.38;;;8.40;;
45316;SDS011;31053;55.870;37.592;2023-04-25T07:33:10;8.10;;;3.97;;
45316;SDS011;31053;55.870;37.592;2023-04-25T07:49:20;11.82;;;3.45;;
45316;SDS011;31053;55.870;37.592;2023-04-25T07:56:59;13.25;;;3.10;;
45316;SDS011;31053;55.870;37.592;2023-04-25T08:00:08;8.57;;;2.42;;
45316;SDS011;31053;55.870;37.592;2023-04-25T08:03:50;12.27;;;3.42;;
45316;SDS011;31053;55.870;37.592;2023-04-25T08:17:29;7.32;;;3.28;;
45316;SDS011;31053;55.870;37.592;2023-04-25T08:21:36;10.02;;;3.42;;
45316;SDS011;31053;55.870;37.592;2023-04-25T08:30:22;9.35;;;3.03;;
45316;SDS011;31053;55.870;37.592;2023-04-25T08:34:51;15.32;;;3.90;;
45316;SDS011;31053;55.870;37.592;2023-04-25T09:00:42;18.33;;;3.58;;
45316;SDS011;31053;55.870;37.592;2023-04-25T09:03:51;5.18;;;2.15;;
45316;SDS011;31053;55.870;37.592;2023-04-25T09:06:59;16.55;;;3.70;;
45316;SDS011;31053;55.870;37.592;2023-04-25T09:13:03;3.65;;;1.90;;
45316;SDS011;31053;55.870;37.592;2023-04-25T09:20:15;17.60;;;3.05;;
45316;SDS011;31053;55.870;37.592;2023-04-25T09:25:33;10.63;;;2.67;;
45316;SDS011;31053;55.870;37.592;2023-04-25T09:28:41;10.32;;;2.63;;
45316;SDS011;31053;55.870;37.592;2023-04-25T09:31:47;10.23;;;2.65;;
45316;SDS011;31053;55.870;37.592;2023-04-25T09:34:52;4.60;;;2.22;;
45316;SDS011;31053;55.870;37.592;2023-04-25T09:38:11;6.50;;;1.90;;
45316;SDS011;31053;55.870;37.592;2023-04-25T09:41:48;4.88;;;2.15;;
45316;SDS011;31053;55.870;37.592;2023-04-25T09:59:22;5.78;;;1.77;;
45316;SDS011;31053;55.870;37.592;2023-04-25T10:02:37;13.63;;;3.25;;
45316;SDS011;31053;55.870;37.592;2023-04-25T10:05:47;8.20;;;2.88;;
45316;SDS011;31053;55.870;37.592;2023-04-25T10:08:57;8.05;;;2.88;;
45316;SDS011;31053;55.870;37.592;2023-04-25T10:31:13;3.35;;;1.58;;
45316;SDS011;31053;55.870;37.592;2023-04-25T10:34:26;4.35;;;1.65;;
45316;SDS011;31053;55.870;37.592;2023-04-25T11:14:51;5.50;;;2.20;;
45316;SDS011;31053;55.870;37.592;2023-04-25T11:18:20;3.55;;;1.85;;
45316;SDS011;31053;55.870;37.592;2023-04-25T11:21:30;4.40;;;1.70;;
45316;SDS011;31053;55.870;37.592;2023-04-25T11:24:36;5.28;;;2.90;;
45316;SDS011;31053;55.870;37.592;2023-04-25T11:31:37;3.95;;;1.80;;
45316;SDS011;31053;55.870;37.592;2023-04-25T11:34:50;2.70;;;1.63;;
45316;SDS011;31053;55.870;37.592;2023-04-25T12:59:20;5.28;;;2.15;;
45316;SDS011;31053;55.870;37.592;2023-04-25T13:09:29;5.13;;;1.55;;
45316;SDS011;31053;55.870;37.592;2023-04-25T13:13:55;6.30;;;1.73;;
45316;SDS011;31053;55.870;37.592;2023-04-25T13:18:14;7.43;;;3.25;;
45316;SDS011;31053;55.870;37.592;2023-04-25T14:09:02;3.97;;;1.67;;
45316;SDS011;31053;55.870;37.592;2023-04-25T14:12:09;10.07;;;2.20;;
45316;SDS011;31053;55.870;37.592;2023-04-25T14:16:13;8.93;;;2.45;;
45316;SDS011;31053;55.870;37.592;2023-04-25T14:20:01;11.00;;;2.10;;
45316;SDS011;31053;55.870;37.592;2023-04-25T14:27:11;6.35;;;2.15;;
45316;SDS011;31053;55.870;37.592;2023-04-25T14:31:26;8.95;;;2.33;;
45316;SDS011;31053;55.870;37.592;2023-04-25T14:55:38;14.32;;;2.72;;
45316;SDS011;31053;55.870;37.592;2023-04-25T15:00:20;14.93;;;4.43;;
45316;SDS011;31053;55.870;37.592;2023-04-25T15:03:26;6.45;;;2.38;;
45316;SDS011;31053;55.870;37.592;2023-04-25T15:06:31;6.57;;;3.15;;
45316;SDS011;31053;55.870;37.592;2023-04-25T15:14:51;27.05;;;4.85;;
45316;SDS011;31053;55.870;37.592;2023-04-25T15:18:05;22.60;;;7.63;;
45316;SDS011;31053;55.870;37.592;2023-04-25T15:22:50;6.20;;;2.85;;
45316;SDS011;31053;55.870;37.592;2023-04-25T15:27:34;7.32;;;2.45;;
45316;SDS011;31053;55.870;37.592;2023-04-25T15:31:17;14.70;;;3.65;;
45316;SDS011;31053;55.870;37.592;2023-04-25T15:35:17;30.27;;;7.65;;
45316;SDS011;31053;55.870;37.592;2023-04-25T15:39:24;8.73;;;3.35;;
45316;SDS011;31053;55.870;37.592;2023-04-25T15:42:38;6.43;;;3.00;;
45316;SDS011;31053;55.870;37.592;2023-04-25T15:50:46;3.85;;;2.08;;
45316;SDS011;31053;55.870;37.592;2023-04-25T15:54:04;17.13;;;3.35;;
45316;SDS011;31053;55.870;37.592;2023-04-25T15:57:12;6.30;;;2.85;;
45316;SDS011;31053;55.870;37.592;2023-04-25T16:00:17;6.75;;;3.25;;
45316;SDS011;31053;55.870;37.592;2023-04-25T16:05:05;4.25;;;2.63;;
45316;SDS011;31053;55.870;37.592;2023-04-25T16:09:35;18.83;;;2.55;;
45316;SDS011;31053;55.870;37.592;2023-04-25T16:24:18;7.60;;;2.50;;
45316;SDS011;31053;55.870;37.592;2023-04-25T19:13:12;4.30;;;2.60;;
45316;SDS011;31053;55.870;37.592;2023-04-25T19:17:10;5.90;;;3.25;;
45316;SDS011;31053;55.870;37.592;2023-04-25T19:27:31;7.05;;;2.20;;
45316;SDS011;31053;55.870;37.592;2023-04-25T19:31:34;10.30;;;4.63;;
45316;SDS011;31053;55.870;37.592;2023-04-25T19:35:22;8.43;;;3.20;;
45316;SDS011;31053;55.870;37.592;2023-04-25T19:38:57;10.75;;;5.57;;
45316;SDS011;31053;55.870;37.592;2023-04-25T19:46:31;4.18;;;2.90;;
45316;SDS011;31053;55.870;37.592;2023-04-25T20:10:16;19.90;;;4.13;;
45316;SDS011;31053;55.870;37.592;2023-04-25T20:13:55;6.80;;;2.40;;
45316;SDS011;31053;55.870;37.592;2023-04-25T20:28:02;4.05;;;1.80;;
45316;SDS011;31053;55.870;37.592;2023-04-25T20:37:18;7.88;;;3.72;;
45316;SDS011;31053;55.870;37.592;2023-04-25T20:40:56;3.13;;;2.13;;
45316;SDS011;31053;55.870;37.592;2023-04-25T20:47:54;4.00;;;2.22;;
45316;SDS011;31053;55.870;37.592;2023-04-25T20:55:26;4.22;;;2.08;;
45316;SDS011;31053;55.870;37.592;2023-04-25T20:59:42;11.27;;;4.82;;
45316;SDS011;31053;55.870;37.592;2023-04-25T21:03:19;5.05;;;2.10;;
45316;SDS011;31053;55.870;37.592;2023-04-25T21:06:31;8.00;;;1.80;;
45316;SDS011;31053;55.870;37.592;2023-04-25T21:09:52;4.35;;;2.55;;
45316;SDS011;31053;55.870;37.592;2023-04-25T21:13:11;13.63;;;7.47;;
45316;SDS011;31053;55.870;37.592;2023-04-25T21:17:02;6.18;;;3.25;;
45316;SDS011;31053;55.870;37.592;2023-04-25T21:20:57;5.65;;;2.72;;
45316;SDS011;31053;55.870;37.592;2023-04-25T21:24:17;10.13;;;6.20;;
45316;SDS011;31053;55.870;37.592;2023-04-25T21:27:21;4.30;;;2.75;;
45316;SDS011;31053;55.870;37.592;2023-04-25T21:30:43;5.20;;;2.35;;
45316;SDS011;31053;55.870;37.592;2023-04-25T21:33:57;3.92;;;1.10;;
45316;SDS011;31053;55.870;37.592;2023-04-25T21:37:05;2.65;;;1.33;;
45316;SDS011;31053;55.870;37.592;2023-04-25T21:40:13;12.27;;;1.80;;
45316;SDS011;31053;55.870;37.592;2023-04-25T21:43:18;11.38;;;2.20;;
45316;SDS011;31053;55.870;37.592;2023-04-25T21:46:24;5.73;;;2.70;;
45316;SDS011;31053;55.870;37.592;2023-04-25T21:49:38;3.72;;;1.92;;
45316;SDS011;31053;55.870;37.592;2023-04-25T21:52:43;2.85;;;1.63;;
45316;SDS011;31053;55.870;37.592;2023-04-25T21:55:48;5.00;;;2.40;;
45316;SDS011;31053;55.870;37.592;2023-04-25T21:58:55;3.85;;;2.22;;
45316;SDS011;31053;55.870;37.592;2023-04-25T22:02:00;2.60;;;1.88;;
45316;SDS011;31053;55.870;37.592;2023-04-25T22:05:11;5.40;;;3.00;;
45316;SDS011;31053;55.870;37.592;2023-04-25T22:08:15;8.93;;;4.32;;
45316;SDS011;31053;55.870;37.592;2023-04-25T22:11:21;6.72;;;2.40;;
45316;SDS011;31053;55.870;37.592;2023-04-25T22:14:45;5.13;;;2.05;;
45316;SDS011;31053;55.870;37.592;2023-04-25T22:18:10;8.88;;;3.08;;
45316;SDS011;31053;55.870;37.592;2023-04-25T22:21:17;3.15;;;2.28;;
45316;SDS011;31053;55.870;37.592;2023-04-25T22:24:34;4.13;;;1.85;;
45316;SDS011;31053;55.870;37.592;2023-04-25T22:27:43;7.03;;;2.58;;
45316;SDS011;31053;55.870;37.592;2023-04-25T22:30:49;7.95;;;4.85;;
45316;SDS011;31053;55.870;37.592;2023-04-25T22:34:02;7.30;;;2.95;;
45316;SDS011;31053;55.870;37.592;2023-04-25T22:37:10;7.20;;;4.53;;
45316;SDS011;31053;55.870;37.592;2023-04-25T22:40:18;7.47;;;4.57;;
45316;SDS011;31053;55.870;37.592;2023-04-25T22:43:30;4.75;;;2.63;;
45316;SDS011;31053;55.870;37.592;2023-04-25T22:46:47;4.65;;;3.15;;
45316;SDS011;31053;55.870;37.592;2023-04-25T22:49:53;3.63;;;1.88;;
45316;SDS011;31053;55.870;37.592;2023-04-25T22:53:30;8.88;;;4.10;;
45316;SDS011;31053;55.870;37.592;2023-04-25T23:01:08;8.32;;;3.67;;
45316;SDS011;31053;55.870;37.592;2023-04-25T23:04:17;9.93;;;3.50;;
45316;SDS011;31053;55.870;37.592;2023-04-25T23:07:40;4.70;;;2.92;;
45316;SDS011;31053;55.870;37.592;2023-04-25T23:10:50;4.80;;;2.67;;
45316;SDS011;31053;55.870;37.592;2023-04-25T23:13:55;6.63;;;3.90;;
45316;SDS011;31053;55.870;37.592;2023-04-25T23:21:56;13.68;;;6.70;;
45316;SDS011;31053;55.870;37.592;2023-04-25T23:26:02;12.68;;;7.03;;
45316;SDS011;31053;55.870;37.592;2023-04-25T23:29:25;11.32;;;7.25;;
45316;SDS011;31053;55.870;37.592;2023-04-25T23:32:47;9.80;;;5.10;;
45316;SDS011;31053;55.870;37.592;2023-04-25T23:36:03;8.88;;;5.45;;
45316;SDS011;31053;55.870;37.592;2023-04-25T23:39:11;13.15;;;6.82;;
45316;SDS011;31053;55.870;37.592;2023-04-25T23:42:18;9.38;;;4.45;;
45316;SDS011;31053;55.870;37.592;2023-04-25T23:45:25;10.32;;;4.85;;
45316;SDS011;31053;55.870;37.592;2023-04-25T23:48:42;6.43;;;4.63;;
45316;SDS011;31053;55.870;37.592;2023-04-25T23:51:48;4.53;;;3.20;;
45316;SDS011;31053;55.870;37.592;2023-04-25T23:55:04;9.88;;;6.15;;
45316;SDS011;31053;55.870;37.592;2023-04-25T23:58:10;11.20;;;4.28;;
